sensor_id;sensor_type;location;lat;lon;timestamp;temperature;humidity
31074;DHT22;17730;53.552;9.940;2022-08-07T00:01:19;13.60;99.90
31074;DHT22;17730;53.552;9.940;2022-08-07T00:03:45;13.60;99.90
31074;DHT22;17730;53.552;9.940;2022-08-07T00:06:11;13.50;99.90
31074;DHT22;17730;53.552;9.940;2022-08-07T00:08:37;13.50;99.90
31074;DHT22;17730;53.552;9.940;2022-08-07T00:11:03;13.50;99.90
31074;DHT22;17730;53.552;9.940;2022-08-07T00:13:30;13.50;99.90
31074;DHT22;17730;53.552;9.940;2022-08-07T00:15:56;13.40;99.90
31074;DHT22;17730;53.552;9.940;2022-08-07T00:18:24;13.40;99.90
31074;DHT22;17730;53.552;9.940;2022-08-07T00:21:00;13.40;99.90
31074;DHT22;17730;53.552;9.940;2022-08-07T00:23:26;13.50;99.90
31074;DHT22;17730;53.552;9.940;2022-08-07T00:25:52;13.40;99.90
31074;DHT22;17730;53.552;9.940;2022-08-07T00:28:19;13.40;99.90
31074;DHT22;17730;53.552;9.940;2022-08-07T00:30:45;13.30;99.90
31074;DHT22;17730;53.552;9.940;2022-08-07T00:33:10;13.40;99.90
31074;DHT22;17730;53.552;9.940;2022-08-07T00:35:36;13.30;99.90
31074;DHT22;17730;53.552;9.940;2022-08-07T00:38:02;13.30;99.90
31074;DHT22;17730;53.552;9.940;2022-08-07T00:40:29;13.30;99.90
31074;DHT22;17730;53.552;9.940;2022-08-07T00:42:55;13.30;99.90
31074;DHT22;17730;53.552;9.940;2022-08-07T00:45:21;13.30;99.90
31074;DHT22;17730;53.552;9.940;2022-08-07T00:47:47;13.40;99.90
31074;DHT22;17730;53.552;9.940;2022-08-07T00:50:14;13.40;99.90
31074;DHT22;17730;53.552;9.940;2022-08-07T00:52:39;13.30;99.90
31074;DHT22;17730;53.552;9.940;2022-08-07T00:55:05;13.40;99.90
31074;DHT22;17730;53.552;9.940;2022-08-07T00:57:31;13.40;99.90
31074;DHT22;17730;53.552;9.940;2022-08-07T00:59:57;13.40;99.90
31074;DHT22;17730;53.552;9.940;2022-08-07T01:02:23;13.30;99.90
31074;DHT22;17730;53.552;9.940;2022-08-07T01:04:49;13.40;99.90
31074;DHT22;17730;53.552;9.940;2022-08-07T01:07:15;13.40;99.90
31074;DHT22;17730;53.552;9.940;2022-08-07T01:09:41;13.40;99.90
31074;DHT22;17730;53.552;9.940;2022-08-07T01:12:06;13.40;99.90
31074;DHT22;17730;53.552;9.940;2022-08-07T01:14:32;13.30;99.90
31074;DHT22;17730;53.552;9.940;2022-08-07T01:16:58;13.30;99.90
31074;DHT22;17730;53.552;9.940;2022-08-07T01:19:26;13.20;99.90
31074;DHT22;17730;53.552;9.940;2022-08-07T01:21:53;13.20;99.90
31074;DHT22;17730;53.552;9.940;2022-08-07T01:24:19;13.20;99.90
31074;DHT22;17730;53.552;9.940;2022-08-07T01:26:45;13.30;99.90
31074;DHT22;17730;53.552;9.940;2022-08-07T01:29:11;13.20;99.90
31074;DHT22;17730;53.552;9.940;2022-08-07T01:31:38;13.20;99.90
31074;DHT22;17730;53.552;9.940;2022-08-07T01:34:04;13.30;99.90
31074;DHT22;17730;53.552;9.940;2022-08-07T01:36:30;13.20;99.90
31074;DHT22;17730;53.552;9.940;2022-08-07T01:38:56;13.20;99.90
31074;DHT22;17730;53.552;9.940;2022-08-07T01:41:22;13.10;99.90
31074;DHT22;17730;53.552;9.940;2022-08-07T01:43:49;13.10;99.90
31074;DHT22;17730;53.552;9.940;2022-08-07T01:46:16;13.10;99.90
31074;DHT22;17730;53.552;9.940;2022-08-07T01:48:43;13.00;99.90
31074;DHT22;17730;53.552;9.940;2022-08-07T01:51:12;13.00;99.90
31074;DHT22;17730;53.552;9.940;2022-08-07T01:53:43;13.00;99.90
31074;DHT22;17730;53.552;9.940;2022-08-07T01:56:14;13.00;99.90
31074;DHT22;17730;53.552;9.940;2022-08-07T01:58:48;12.90;99.90
31074;DHT22;17730;53.552;9.940;2022-08-07T02:01:21;12.80;99.90
31074;DHT22;17730;53.552;9.940;2022-08-07T02:03:52;12.80;99.90
31074;DHT22;17730;53.552;9.940;2022-08-07T02:06:20;12.70;99.90
31074;DHT22;17730;53.552;9.940;2022-08-07T02:08:48;12.70;99.90
31074;DHT22;17730;53.552;9.940;2022-08-07T02:11:14;12.70;99.90
31074;DHT22;17730;53.552;9.940;2022-08-07T02:13:41;12.70;99.90
31074;DHT22;17730;53.552;9.940;2022-08-07T02:16:09;12.70;99.90
31074;DHT22;17730;53.552;9.940;2022-08-07T02:18:36;12.70;99.90
31074;DHT22;17730;53.552;9.940;2022-08-07T02:21:04;12.70;99.90
31074;DHT22;17730;53.552;9.940;2022-08-07T02:23:33;12.70;99.90
31074;DHT22;17730;53.552;9.940;2022-08-07T02:26:00;12.70;99.90
31074;DHT22;17730;53.552;9.940;2022-08-07T02:28:28;12.70;99.90
31074;DHT22;17730;53.552;9.940;2022-08-07T02:30:56;12.70;99.90
31074;DHT22;17730;53.552;9.940;2022-08-07T02:33:27;12.70;99.90
31074;DHT22;17730;53.552;9.940;2022-08-07T02:35:54;12.70;99.90
31074;DHT22;17730;53.552;9.940;2022-08-07T02:38:31;12.70;99.90
31074;DHT22;17730;53.552;9.940;2022-08-07T02:40:59;12.70;99.90
31074;DHT22;17730;53.552;9.940;2022-08-07T02:43:26;12.70;99.90
31074;DHT22;17730;53.552;9.940;2022-08-07T02:45:52;12.60;99.90
31074;DHT22;17730;53.552;9.940;2022-08-07T02:48:18;12.70;99.90
31074;DHT22;17730;53.552;9.940;2022-08-07T02:50:47;12.70;99.90
31074;DHT22;17730;53.552;9.940;2022-08-07T02:53:20;12.70;99.90
31074;DHT22;17730;53.552;9.940;2022-08-07T02:55:47;12.70;99.90
31074;DHT22;17730;53.552;9.940;2022-08-07T02:58:18;12.70;99.90
31074;DHT22;17730;53.552;9.940;2022-08-07T03:00:44;12.80;99.90
31074;DHT22;17730;53.552;9.940;2022-08-07T03:03:11;12.80;99.90
31074;DHT22;17730;53.552;9.940;2022-08-07T03:05:39;12.80;99.90
31074;DHT22;17730;53.552;9.940;2022-08-07T03:08:06;12.70;99.90
31074;DHT22;17730;53.552;9.940;2022-08-07T03:10:32;12.70;99.90
31074;DHT22;17730;53.552;9.940;2022-08-07T03:12:59;12.70;99.90
31074;DHT22;17730;53.552;9.940;2022-08-07T03:15:27;12.60;99.90
31074;DHT22;17730;53.552;9.940;2022-08-07T03:17:53;12.60;99.90
31074;DHT22;17730;53.552;9.940;2022-08-07T03:20:18;12.60;99.90
31074;DHT22;17730;53.552;9.940;2022-08-07T03:22:45;12.60;99.90
31074;DHT22;17730;53.552;9.940;2022-08-07T03:25:11;12.60;99.90
31074;DHT22;17730;53.552;9.940;2022-08-07T03:27:38;12.60;99.90
31074;DHT22;17730;53.552;9.940;2022-08-07T03:30:05;12.60;99.90
31074;DHT22;17730;53.552;9.940;2022-08-07T03:32:35;12.60;99.90
31074;DHT22;17730;53.552;9.940;2022-08-07T03:35:03;12.60;99.90
31074;DHT22;17730;53.552;9.940;2022-08-07T03:37:30;12.60;99.90
31074;DHT22;17730;53.552;9.940;2022-08-07T03:39:57;12.60;99.90
31074;DHT22;17730;53.552;9.940;2022-08-07T03:42:24;12.70;99.90
31074;DHT22;17730;53.552;9.940;2022-08-07T03:44:51;12.60;99.90
31074;DHT22;17730;53.552;9.940;2022-08-07T03:47:17;12.70;99.90
31074;DHT22;17730;53.552;9.940;2022-08-07T03:49:43;12.60;99.90
31074;DHT22;17730;53.552;9.940;2022-08-07T03:52:10;12.70;99.90
31074;DHT22;17730;53.552;9.940;2022-08-07T03:54:36;12.70;99.90
31074;DHT22;17730;53.552;9.940;2022-08-07T03:57:03;12.80;99.90
31074;DHT22;17730;53.552;9.940;2022-08-07T03:59:30;12.90;99.90
31074;DHT22;17730;53.552;9.940;2022-08-07T04:01:57;13.10;99.90
31074;DHT22;17730;53.552;9.940;2022-08-07T04:04:23;13.30;99.90
31074;DHT22;17730;53.552;9.940;2022-08-07T04:06:50;13.40;99.90
31074;DHT22;17730;53.552;9.940;2022-08-07T04:09:16;13.70;99.90
31074;DHT22;17730;53.552;9.940;2022-08-07T04:11:46;14.00;99.90
31074;DHT22;17730;53.552;9.940;2022-08-07T04:14:12;14.20;99.90
31074;DHT22;17730;53.552;9.940;2022-08-07T04:16:38;14.60;99.90
31074;DHT22;17730;53.552;9.940;2022-08-07T04:19:06;15.10;99.90
31074;DHT22;17730;53.552;9.940;2022-08-07T04:21:32;15.50;99.90
31074;DHT22;17730;53.552;9.940;2022-08-07T04:23:58;15.90;99.90
31074;DHT22;17730;53.552;9.940;2022-08-07T04:26:24;16.30;99.90
31074;DHT22;17730;53.552;9.940;2022-08-07T04:28:50;16.70;99.90
31074;DHT22;17730;53.552;9.940;2022-08-07T04:31:16;17.00;99.90
31074;DHT22;17730;53.552;9.940;2022-08-07T04:33:42;17.40;99.90
31074;DHT22;17730;53.552;9.940;2022-08-07T04:36:09;17.50;99.90
31074;DHT22;17730;53.552;9.940;2022-08-07T04:38:35;17.60;99.90
31074;DHT22;17730;53.552;9.940;2022-08-07T04:41:02;17.70;99.90
31074;DHT22;17730;53.552;9.940;2022-08-07T04:43:32;17.60;99.90
31074;DHT22;17730;53.552;9.940;2022-08-07T04:46:10;17.70;99.90
31074;DHT22;17730;53.552;9.940;2022-08-07T04:48:59;17.80;99.90
31074;DHT22;17730;53.552;9.940;2022-08-07T04:51:36;17.90;99.90
31074;DHT22;17730;53.552;9.940;2022-08-07T04:56:51;18.00;99.90
31074;DHT22;17730;53.552;9.940;2022-08-07T04:59:31;17.70;99.90
31074;DHT22;17730;53.552;9.940;2022-08-07T05:02:21;17.50;99.90
31074;DHT22;17730;53.552;9.940;2022-08-07T05:04:56;17.20;99.90
31074;DHT22;17730;53.552;9.940;2022-08-07T05:07:35;16.80;99.90
31074;DHT22;17730;53.552;9.940;2022-08-07T05:12:34;16.30;99.90
31074;DHT22;17730;53.552;9.940;2022-08-07T05:15:09;16.10;99.90
31074;DHT22;17730;53.552;9.940;2022-08-07T05:17:46;16.00;99.90
31074;DHT22;17730;53.552;9.940;2022-08-07T05:20:16;15.80;99.90
31074;DHT22;17730;53.552;9.940;2022-08-07T05:22:45;15.70;99.90
31074;DHT22;17730;53.552;9.940;2022-08-07T05:25:14;15.70;99.90
31074;DHT22;17730;53.552;9.940;2022-08-07T05:27:42;15.70;99.90
31074;DHT22;17730;53.552;9.940;2022-08-07T05:30:10;15.60;99.90
31074;DHT22;17730;53.552;9.940;2022-08-07T05:32:37;15.60;99.90
31074;DHT22;17730;53.552;9.940;2022-08-07T05:35:05;15.60;99.90
31074;DHT22;17730;53.552;9.940;2022-08-07T05:37:31;15.60;99.90
31074;DHT22;17730;53.552;9.940;2022-08-07T05:39:58;15.50;99.90
31074;DHT22;17730;53.552;9.940;2022-08-07T05:42:25;15.50;99.90
31074;DHT22;17730;53.552;9.940;2022-08-07T05:44:51;15.60;99.90
31074;DHT22;17730;53.552;9.940;2022-08-07T05:47:19;15.60;99.90
31074;DHT22;17730;53.552;9.940;2022-08-07T05:49:49;15.60;99.90
31074;DHT22;17730;53.552;9.940;2022-08-07T05:52:17;15.70;99.90
31074;DHT22;17730;53.552;9.940;2022-08-07T05:54:43;15.70;99.90
31074;DHT22;17730;53.552;9.940;2022-08-07T05:57:09;15.80;99.90
31074;DHT22;17730;53.552;9.940;2022-08-07T05:59:37;15.80;99.90
31074;DHT22;17730;53.552;9.940;2022-08-07T06:02:05;15.90;99.90
31074;DHT22;17730;53.552;9.940;2022-08-07T06:04:33;15.90;99.90
31074;DHT22;17730;53.552;9.940;2022-08-07T06:07:02;16.00;99.90
31074;DHT22;17730;53.552;9.940;2022-08-07T06:09:31;16.10;99.90
31074;DHT22;17730;53.552;9.940;2022-08-07T06:11:58;16.20;99.90
31074;DHT22;17730;53.552;9.940;2022-08-07T06:14:24;16.20;99.90
31074;DHT22;17730;53.552;9.940;2022-08-07T06:16:50;16.30;99.90
31074;DHT22;17730;53.552;9.940;2022-08-07T06:19:17;16.40;99.90
31074;DHT22;17730;53.552;9.940;2022-08-07T06:21:44;16.40;99.90
31074;DHT22;17730;53.552;9.940;2022-08-07T06:24:10;16.50;99.90
31074;DHT22;17730;53.552;9.940;2022-08-07T06:26:38;16.60;99.90
31074;DHT22;17730;53.552;9.940;2022-08-07T06:29:04;16.60;99.90
31074;DHT22;17730;53.552;9.940;2022-08-07T06:31:30;16.70;99.90
31074;DHT22;17730;53.552;9.940;2022-08-07T06:33:55;16.80;99.90
31074;DHT22;17730;53.552;9.940;2022-08-07T06:36:21;16.90;99.90
31074;DHT22;17730;53.552;9.940;2022-08-07T06:38:46;16.90;99.90
31074;DHT22;17730;53.552;9.940;2022-08-07T06:41:18;17.00;99.90
31074;DHT22;17730;53.552;9.940;2022-08-07T06:43:46;17.00;99.90
31074;DHT22;17730;53.552;9.940;2022-08-07T06:46:13;17.10;99.90
31074;DHT22;17730;53.552;9.940;2022-08-07T06:48:39;17.20;99.90
31074;DHT22;17730;53.552;9.940;2022-08-07T06:51:07;17.20;99.90
31074;DHT22;17730;53.552;9.940;2022-08-07T06:53:36;17.30;99.90
31074;DHT22;17730;53.552;9.940;2022-08-07T06:56:04;17.30;99.90
31074;DHT22;17730;53.552;9.940;2022-08-07T06:58:33;17.30;99.90
31074;DHT22;17730;53.552;9.940;2022-08-07T07:01:00;17.40;99.90
31074;DHT22;17730;53.552;9.940;2022-08-07T07:03:27;17.40;99.90
31074;DHT22;17730;53.552;9.940;2022-08-07T07:05:52;17.50;99.90
31074;DHT22;17730;53.552;9.940;2022-08-07T07:08:24;17.70;99.90
31074;DHT22;17730;53.552;9.940;2022-08-07T07:10:51;17.70;99.90
31074;DHT22;17730;53.552;9.940;2022-08-07T07:13:36;17.80;99.90
31074;DHT22;17730;53.552;9.940;2022-08-07T07:16:06;17.80;99.90
31074;DHT22;17730;53.552;9.940;2022-08-07T07:18:39;17.90;99.90
31074;DHT22;17730;53.552;9.940;2022-08-07T07:21:11;18.00;99.90
31074;DHT22;17730;53.552;9.940;2022-08-07T07:23:39;18.00;99.90
31074;DHT22;17730;53.552;9.940;2022-08-07T07:26:08;18.20;99.90
31074;DHT22;17730;53.552;9.940;2022-08-07T07:28:42;18.30;99.90
31074;DHT22;17730;53.552;9.940;2022-08-07T07:31:22;18.40;99.90
31074;DHT22;17730;53.552;9.940;2022-08-07T07:33:53;18.50;99.90
31074;DHT22;17730;53.552;9.940;2022-08-07T07:36:21;18.50;99.90
31074;DHT22;17730;53.552;9.940;2022-08-07T07:38:47;18.50;99.90
31074;DHT22;17730;53.552;9.940;2022-08-07T07:41:15;18.50;99.90
31074;DHT22;17730;53.552;9.940;2022-08-07T07:43:43;18.60;99.90
31074;DHT22;17730;53.552;9.940;2022-08-07T07:46:12;18.60;99.90
31074;DHT22;17730;53.552;9.940;2022-08-07T07:48:39;18.70;99.90
31074;DHT22;17730;53.552;9.940;2022-08-07T07:51:06;18.90;99.90
31074;DHT22;17730;53.552;9.940;2022-08-07T07:53:33;19.00;99.90
31074;DHT22;17730;53.552;9.940;2022-08-07T07:56:00;19.10;99.90
31074;DHT22;17730;53.552;9.940;2022-08-07T07:58:33;19.20;99.90
31074;DHT22;17730;53.552;9.940;2022-08-07T08:00:59;19.20;99.90
31074;DHT22;17730;53.552;9.940;2022-08-07T08:03:27;19.30;99.90
31074;DHT22;17730;53.552;9.940;2022-08-07T08:05:54;19.30;99.90
31074;DHT22;17730;53.552;9.940;2022-08-07T08:08:21;19.50;99.90
31074;DHT22;17730;53.552;9.940;2022-08-07T08:10:47;19.50;99.90
31074;DHT22;17730;53.552;9.940;2022-08-07T08:13:14;19.50;99.90
31074;DHT22;17730;53.552;9.940;2022-08-07T08:15:41;19.50;99.90
31074;DHT22;17730;53.552;9.940;2022-08-07T08:18:09;19.60;99.90
31074;DHT22;17730;53.552;9.940;2022-08-07T08:20:37;19.50;99.30
31074;DHT22;17730;53.552;9.940;2022-08-07T08:23:06;19.50;99.50
31074;DHT22;17730;53.552;9.940;2022-08-07T08:26:11;19.60;99.70
31074;DHT22;17730;53.552;9.940;2022-08-07T08:28:58;19.70;99.20
31074;DHT22;17730;53.552;9.940;2022-08-07T08:31:28;19.50;98.70
31074;DHT22;17730;53.552;9.940;2022-08-07T08:33:55;19.50;99.00
31074;DHT22;17730;53.552;9.940;2022-08-07T08:36:28;19.70;98.70
31074;DHT22;17730;53.552;9.940;2022-08-07T08:38:56;19.90;98.60
31074;DHT22;17730;53.552;9.940;2022-08-07T08:41:33;20.00;98.50
31074;DHT22;17730;53.552;9.940;2022-08-07T10:00:02;22.40;94.60
31074;DHT22;17730;53.552;9.940;2022-08-07T10:19:33;21.70;94.80
31074;DHT22;17730;53.552;9.940;2022-08-07T10:27:40;21.60;95.30
31074;DHT22;17730;53.552;9.940;2022-08-07T10:30:11;21.50;95.30
31074;DHT22;17730;53.552;9.940;2022-08-07T10:32:55;21.60;95.50
31074;DHT22;17730;53.552;9.940;2022-08-07T10:41:08;22.00;94.40
31074;DHT22;17730;53.552;9.940;2022-08-07T10:43:47;21.80;94.60
31074;DHT22;17730;53.552;9.940;2022-08-07T10:46:23;21.70;94.80
31074;DHT22;17730;53.552;9.940;2022-08-07T10:49:13;21.30;95.00
31074;DHT22;17730;53.552;9.940;2022-08-07T10:52:07;21.10;95.50
31074;DHT22;17730;53.552;9.940;2022-08-07T10:54:55;21.20;95.80
31074;DHT22;17730;53.552;9.940;2022-08-07T10:57:38;21.30;95.90
31074;DHT22;17730;53.552;9.940;2022-08-07T11:00:08;21.30;95.80
31074;DHT22;17730;53.552;9.940;2022-08-07T11:02:49;21.50;95.40
31074;DHT22;17730;53.552;9.940;2022-08-07T11:05:44;21.80;94.50
31074;DHT22;17730;53.552;9.940;2022-08-07T11:08:18;21.70;94.40
31074;DHT22;17730;53.552;9.940;2022-08-07T11:11:20;21.60;94.60
31074;DHT22;17730;53.552;9.940;2022-08-07T11:14:03;21.60;95.10
31074;DHT22;17730;53.552;9.940;2022-08-07T11:20:00;22.30;92.90
31074;DHT22;17730;53.552;9.940;2022-08-07T11:28:28;23.10;92.60
31074;DHT22;17730;53.552;9.940;2022-08-07T11:34:04;23.80;89.30
31074;DHT22;17730;53.552;9.940;2022-08-07T11:36:58;23.90;88.60
31074;DHT22;17730;53.552;9.940;2022-08-07T11:39:59;24.10;88.30
31074;DHT22;17730;53.552;9.940;2022-08-07T11:42:43;23.20;89.70
31074;DHT22;17730;53.552;9.940;2022-08-07T11:50:30;22.70;91.90
31074;DHT22;17730;53.552;9.940;2022-08-07T11:53:15;22.90;91.00
31074;DHT22;17730;53.552;9.940;2022-08-07T11:56:14;22.90;90.50
31074;DHT22;17730;53.552;9.940;2022-08-07T12:01:35;22.70;90.80
31074;DHT22;17730;53.552;9.940;2022-08-07T12:04:24;22.30;91.00
31074;DHT22;17730;53.552;9.940;2022-08-07T12:07:00;22.20;91.30
31074;DHT22;17730;53.552;9.940;2022-08-07T12:09:46;22.40;91.20
31074;DHT22;17730;53.552;9.940;2022-08-07T12:12:22;22.80;90.70
31074;DHT22;17730;53.552;9.940;2022-08-07T12:15:17;22.90;90.30
31074;DHT22;17730;53.552;9.940;2022-08-07T12:17:49;22.70;89.70
31074;DHT22;17730;53.552;9.940;2022-08-07T12:20:21;22.70;90.20
31074;DHT22;17730;53.552;9.940;2022-08-07T12:23:21;22.70;90.00
31074;DHT22;17730;53.552;9.940;2022-08-07T12:25:51;22.70;90.20
31074;DHT22;17730;53.552;9.940;2022-08-07T12:33:55;22.60;90.50
31074;DHT22;17730;53.552;9.940;2022-08-07T12:36:23;22.80;90.40
31074;DHT22;17730;53.552;9.940;2022-08-07T12:38:49;23.10;89.80
31074;DHT22;17730;53.552;9.940;2022-08-07T12:41:16;23.30;88.10
31074;DHT22;17730;53.552;9.940;2022-08-07T12:43:43;23.10;88.80
31074;DHT22;17730;53.552;9.940;2022-08-07T12:46:42;22.90;89.30
31074;DHT22;17730;53.552;9.940;2022-08-07T12:49:36;23.00;89.10
31074;DHT22;17730;53.552;9.940;2022-08-07T12:52:12;23.20;89.00
31074;DHT22;17730;53.552;9.940;2022-08-07T12:55:02;23.50;88.00
31074;DHT22;17730;53.552;9.940;2022-08-07T12:57:34;24.00;86.30
31074;DHT22;17730;53.552;9.940;2022-08-07T13:00:03;24.20;83.70
31074;DHT22;17730;53.552;9.940;2022-08-07T13:08:56;24.60;81.20
31074;DHT22;17730;53.552;9.940;2022-08-07T13:16:57;24.10;78.80
31074;DHT22;17730;53.552;9.940;2022-08-07T13:19:51;24.20;77.60
31074;DHT22;17730;53.552;9.940;2022-08-07T13:22:25;24.30;78.60
31074;DHT22;17730;53.552;9.940;2022-08-07T13:25:10;24.50;77.10
31074;DHT22;17730;53.552;9.940;2022-08-07T13:27:49;24.10;76.50
31074;DHT22;17730;53.552;9.940;2022-08-07T13:30:16;23.90;78.10
31074;DHT22;17730;53.552;9.940;2022-08-07T13:32:57;23.70;77.50
31074;DHT22;17730;53.552;9.940;2022-08-07T13:35:43;23.60;77.00
31074;DHT22;17730;53.552;9.940;2022-08-07T13:38:43;23.80;78.00
31074;DHT22;17730;53.552;9.940;2022-08-07T13:41:38;23.20;78.90
31074;DHT22;17730;53.552;9.940;2022-08-07T13:44:06;23.30;80.60
31074;DHT22;17730;53.552;9.940;2022-08-07T13:46:34;23.60;77.30
31074;DHT22;17730;53.552;9.940;2022-08-07T13:49:04;23.80;77.00
31074;DHT22;17730;53.552;9.940;2022-08-07T13:51:33;24.20;75.00
31074;DHT22;17730;53.552;9.940;2022-08-07T13:54:03;24.10;72.60
31074;DHT22;17730;53.552;9.940;2022-08-07T13:56:32;23.80;73.20
31074;DHT22;17730;53.552;9.940;2022-08-07T13:58:59;23.60;74.10
31074;DHT22;17730;53.552;9.940;2022-08-07T14:01:28;23.40;76.30
31074;DHT22;17730;53.552;9.940;2022-08-07T14:03:55;23.30;79.00
31074;DHT22;17730;53.552;9.940;2022-08-07T14:06:22;23.20;78.10
31074;DHT22;17730;53.552;9.940;2022-08-07T14:08:51;23.00;80.40
31074;DHT22;17730;53.552;9.940;2022-08-07T14:11:21;22.80;82.10
31074;DHT22;17730;53.552;9.940;2022-08-07T14:13:51;22.80;83.00
31074;DHT22;17730;53.552;9.940;2022-08-07T14:16:24;22.90;83.30
31074;DHT22;17730;53.552;9.940;2022-08-07T14:18:52;23.10;82.90
31074;DHT22;17730;53.552;9.940;2022-08-07T14:21:28;23.00;82.20
31074;DHT22;17730;53.552;9.940;2022-08-07T14:23:58;22.90;83.20
31074;DHT22;17730;53.552;9.940;2022-08-07T14:26:41;23.00;83.70
31074;DHT22;17730;53.552;9.940;2022-08-07T14:29:10;23.40;83.60
31074;DHT22;17730;53.552;9.940;2022-08-07T14:31:38;23.70;81.00
31074;DHT22;17730;53.552;9.940;2022-08-07T14:34:05;23.80;80.40
31074;DHT22;17730;53.552;9.940;2022-08-07T14:36:32;24.10;78.90
31074;DHT22;17730;53.552;9.940;2022-08-07T14:39:00;23.90;77.10
31074;DHT22;17730;53.552;9.940;2022-08-07T14:41:28;23.80;77.30
31074;DHT22;17730;53.552;9.940;2022-08-07T14:43:57;23.70;79.90
31074;DHT22;17730;53.552;9.940;2022-08-07T14:46:27;23.90;79.10
31074;DHT22;17730;53.552;9.940;2022-08-07T14:48:54;23.60;79.20
31074;DHT22;17730;53.552;9.940;2022-08-07T14:51:23;23.60;80.30
31074;DHT22;17730;53.552;9.940;2022-08-07T14:53:53;23.50;81.30
31074;DHT22;17730;53.552;9.940;2022-08-07T14:56:21;23.60;80.60
31074;DHT22;17730;53.552;9.940;2022-08-07T14:58:52;23.70;80.00
31074;DHT22;17730;53.552;9.940;2022-08-07T15:01:23;23.60;80.40
31074;DHT22;17730;53.552;9.940;2022-08-07T15:03:50;23.60;80.30
31074;DHT22;17730;53.552;9.940;2022-08-07T15:06:22;23.60;79.40
31074;DHT22;17730;53.552;9.940;2022-08-07T15:08:49;23.90;79.10
31074;DHT22;17730;53.552;9.940;2022-08-07T15:11:23;24.00;77.50
31074;DHT22;17730;53.552;9.940;2022-08-07T15:13:59;24.20;77.20
31074;DHT22;17730;53.552;9.940;2022-08-07T15:16:45;24.30;76.90
31074;DHT22;17730;53.552;9.940;2022-08-07T15:19:17;24.70;76.30
31074;DHT22;17730;53.552;9.940;2022-08-07T15:21:49;24.90;75.40
31074;DHT22;17730;53.552;9.940;2022-08-07T15:24:23;25.10;74.70
31074;DHT22;17730;53.552;9.940;2022-08-07T15:27:07;25.40;73.20
31074;DHT22;17730;53.552;9.940;2022-08-07T15:29:43;25.40;71.50
31074;DHT22;17730;53.552;9.940;2022-08-07T15:32:10;24.90;73.30
31074;DHT22;17730;53.552;9.940;2022-08-07T15:34:39;24.60;73.30
31074;DHT22;17730;53.552;9.940;2022-08-07T15:37:07;24.60;74.40
31074;DHT22;17730;53.552;9.940;2022-08-07T15:39:38;24.70;74.80
31074;DHT22;17730;53.552;9.940;2022-08-07T15:42:06;24.20;76.20
31074;DHT22;17730;53.552;9.940;2022-08-07T15:44:45;24.00;78.20
31074;DHT22;17730;53.552;9.940;2022-08-07T15:47:13;24.20;77.80
31074;DHT22;17730;53.552;9.940;2022-08-07T15:49:42;24.30;78.10
31074;DHT22;17730;53.552;9.940;2022-08-07T15:52:10;24.40;76.60
31074;DHT22;17730;53.552;9.940;2022-08-07T15:54:38;24.30;76.00
31074;DHT22;17730;53.552;9.940;2022-08-07T15:57:09;24.20;75.20
31074;DHT22;17730;53.552;9.940;2022-08-07T15:59:36;24.10;75.50
31074;DHT22;17730;53.552;9.940;2022-08-07T16:02:04;24.30;75.30
31074;DHT22;17730;53.552;9.940;2022-08-07T16:04:33;24.10;75.90
31074;DHT22;17730;53.552;9.940;2022-08-07T16:07:03;23.90;76.80
31074;DHT22;17730;53.552;9.940;2022-08-07T16:09:50;24.00;77.40
31074;DHT22;17730;53.552;9.940;2022-08-07T16:15:34;24.40;76.90
31074;DHT22;17730;53.552;9.940;2022-08-07T16:18:15;24.50;75.80
31074;DHT22;17730;53.552;9.940;2022-08-07T16:33:59;23.90;77.50
31074;DHT22;17730;53.552;9.940;2022-08-07T16:45:09;24.60;75.70
31074;DHT22;17730;53.552;9.940;2022-08-07T16:53:28;25.60;71.20
31074;DHT22;17730;53.552;9.940;2022-08-07T16:58:53;26.20;69.10
31074;DHT22;17730;53.552;9.940;2022-08-07T17:04:09;25.10;69.80
31074;DHT22;17730;53.552;9.940;2022-08-07T18:02:53;24.30;71.80
31074;DHT22;17730;53.552;9.940;2022-08-07T18:10:38;21.80;91.90
31074;DHT22;17730;53.552;9.940;2022-08-07T18:13:13;21.70;92.30
31074;DHT22;17730;53.552;9.940;2022-08-07T18:16:01;21.80;92.60
31074;DHT22;17730;53.552;9.940;2022-08-07T18:18:34;21.70;92.80
31074;DHT22;17730;53.552;9.940;2022-08-07T18:21:38;21.60;93.50
31074;DHT22;17730;53.552;9.940;2022-08-07T18:24:25;21.50;93.50
31074;DHT22;17730;53.552;9.940;2022-08-07T18:27:15;21.40;94.10
31074;DHT22;17730;53.552;9.940;2022-08-07T18:29:59;21.40;94.30
31074;DHT22;17730;53.552;9.940;2022-08-07T18:46:04;21.30;94.80
31074;DHT22;17730;53.552;9.940;2022-08-07T18:54:44;20.60;96.60
31074;DHT22;17730;53.552;9.940;2022-08-07T18:57:45;20.40;97.30
31074;DHT22;17730;53.552;9.940;2022-08-07T19:00:14;20.30;97.80
31074;DHT22;17730;53.552;9.940;2022-08-07T19:02:57;20.10;98.30
31074;DHT22;17730;53.552;9.940;2022-08-07T19:05:36;19.90;98.80
31074;DHT22;17730;53.552;9.940;2022-08-07T19:08:05;19.70;99.30
31074;DHT22;17730;53.552;9.940;2022-08-07T19:10:52;19.60;99.70
31074;DHT22;17730;53.552;9.940;2022-08-07T19:13:57;19.50;99.90
31074;DHT22;17730;53.552;9.940;2022-08-07T19:19:07;19.30;99.90
31074;DHT22;17730;53.552;9.940;2022-08-07T19:21:53;19.20;99.90
31074;DHT22;17730;53.552;9.940;2022-08-07T19:24:25;19.10;99.90
31074;DHT22;17730;53.552;9.940;2022-08-07T19:26:53;19.00;99.90
31074;DHT22;17730;53.552;9.940;2022-08-07T19:29:23;19.00;99.90
31074;DHT22;17730;53.552;9.940;2022-08-07T19:31:51;18.90;99.90
31074;DHT22;17730;53.552;9.940;2022-08-07T19:34:20;18.80;99.90
31074;DHT22;17730;53.552;9.940;2022-08-07T19:36:48;18.80;99.90
31074;DHT22;17730;53.552;9.940;2022-08-07T19:39:20;18.70;99.90
31074;DHT22;17730;53.552;9.940;2022-08-07T19:41:51;18.60;99.90
31074;DHT22;17730;53.552;9.940;2022-08-07T19:44:24;18.50;99.90
31074;DHT22;17730;53.552;9.940;2022-08-07T19:46:53;18.50;99.90
31074;DHT22;17730;53.552;9.940;2022-08-07T19:49:21;18.50;99.90
31074;DHT22;17730;53.552;9.940;2022-08-07T19:51:50;18.40;99.90
31074;DHT22;17730;53.552;9.940;2022-08-07T19:54:17;18.30;99.90
31074;DHT22;17730;53.552;9.940;2022-08-07T19:56:45;18.30;99.90
31074;DHT22;17730;53.552;9.940;2022-08-07T19:59:26;18.30;99.90
31074;DHT22;17730;53.552;9.940;2022-08-07T20:01:54;18.20;99.90
31074;DHT22;17730;53.552;9.940;2022-08-07T20:04:24;18.10;99.90
31074;DHT22;17730;53.552;9.940;2022-08-07T20:06:53;18.10;99.90
31074;DHT22;17730;53.552;9.940;2022-08-07T20:09:23;18.10;99.90
31074;DHT22;17730;53.552;9.940;2022-08-07T20:11:52;18.10;99.90
31074;DHT22;17730;53.552;9.940;2022-08-07T20:14:24;18.00;99.90
31074;DHT22;17730;53.552;9.940;2022-08-07T20:16:55;17.90;99.90
31074;DHT22;17730;53.552;9.940;2022-08-07T20:19:21;17.90;99.90
31074;DHT22;17730;53.552;9.940;2022-08-07T20:21:50;17.80;99.90
31074;DHT22;17730;53.552;9.940;2022-08-07T20:24:30;17.80;99.90